Back to Top

Language: 

My Weather Underground Personal Weather Station Historical Data with Graphs...

Delerius Weather Station Historical Data
Daily Summary for November 30, 2017 Units:  Metric    English   Both
« Previous Day
Next Day »
Daily Weekly Monthly Yearly Custom
  High: Low: Average:
Temperature: 3.8 °C -0.2 °C 1.6 °C
Dew Point: 0.7 °C -3.5 °C -1.7 °C
Humidity: 93 % 66 % 79 %
Wind Speed: 22.5 km/h 6.4 km/h 13.8 km/h
Wind Gust: 40.2 km/h - -
Wind:- - NW
Pressure: 1016.8 hPa 1011.7 hPa -
Precipitation: 1.27 mm    
Historical Graphs
 
 
Tabular Data for November 30, 2017
Time Temperature Dew Point Pressure Wind Wind Speed Wind Gust Humidity Rainfall Rate (Hourly) solar Conditions
00:01 -0.1 °C -2.7 °C 1014.1 hPa WNW 11.3 km/h 16.1 km/h 83 % 0 mm 0 W/m2
00:06 0.1 °C -2.6 °C 1014.1 hPa NW 16.1 km/h 25.7 km/h 82 % 0 mm 0 W/m2
00:11 0.2 °C -2.5 °C 1013.8 hPa NW 12.9 km/h 22.5 km/h 82 % 0 mm 0 W/m2
00:21 0.4 °C -2.5 °C 1013.8 hPa WNW 16.1 km/h 24.1 km/h 81 % 0 mm 0 W/m2
00:26 0.4 °C -2.7 °C 1013.8 hPa WNW 12.9 km/h 19.3 km/h 80 % 0 mm 0 W/m2
00:36 0.3 °C -2.7 °C 1013.8 hPa WNW 11.3 km/h 17.7 km/h 80 % 0 mm 0 W/m2
00:41 0.3 °C -2.7 °C 1013.8 hPa WNW 11.3 km/h 17.7 km/h 80 % 0 mm 0 W/m2
00:46 0.3 °C -2.7 °C 1013.4 hPa WNW 11.3 km/h 20.9 km/h 80 % 0 mm 0 W/m2
00:56 0.3 °C -2.7 °C 1013.4 hPa NW 12.9 km/h 22.5 km/h 80 % 0 mm 0 W/m2
01:06 0.5 °C -2.7 °C 1013.4 hPa NW 12.9 km/h 25.7 km/h 79 % 0 mm 0 W/m2
01:11 0.5 °C -2.7 °C 1013.4 hPa WNW 12.9 km/h 17.7 km/h 79 % 0 mm 0 W/m2
01:16 0.5 °C -2.7 °C 1013.4 hPa WNW 11.3 km/h 17.7 km/h 79 % 0 mm 0 W/m2
01:21 0.4 °C -2.8 °C 1013.1 hPa WNW 11.3 km/h 17.7 km/h 79 % 0 mm 0 W/m2
01:26 0.4 °C -2.8 °C 1013.1 hPa WNW 11.3 km/h 17.7 km/h 79 % 0 mm 0 W/m2
01:31 0.4 °C -2.8 °C 1013.1 hPa WNW 11.3 km/h 19.3 km/h 79 % 0 mm 0 W/m2
01:36 0.3 °C -2.9 °C 1013.1 hPa WNW 11.3 km/h 19.3 km/h 79 % 0 mm 0 W/m2
01:41 0.3 °C -2.9 °C 1013.1 hPa NW 12.9 km/h 22.5 km/h 79 % 0 mm 0 W/m2
01:47 0.4 °C -2.8 °C 1013.1 hPa NW 9.7 km/h 17.7 km/h 79 % 0 mm 0 W/m2
01:51 0.4 °C -2.8 °C 1013.1 hPa NW 12.9 km/h 22.5 km/h 79 % 0 mm 0 W/m2
01:57 0.4 °C -2.8 °C 1013.1 hPa NW 9.7 km/h 16.1 km/h 79 % 0 mm 0 W/m2
02:07 0.4 °C -3 °C 1013.1 hPa WNW 12.9 km/h 22.5 km/h 78 % 0 mm 0 W/m2
02:12 0.4 °C -2.8 °C 1013.1 hPa WNW 11.3 km/h 19.3 km/h 79 % 0 mm 0 W/m2
02:17 0.3 °C -2.9 °C 1013.1 hPa WNW 14.5 km/h 20.9 km/h 79 % 0 mm 0 W/m2
02:22 0.3 °C -2.9 °C 1013.1 hPa NW 12.9 km/h 19.3 km/h 79 % 0 mm 0 W/m2
02:27 0.3 °C -2.9 °C 1012.8 hPa NW 14.5 km/h 25.7 km/h 79 % 0 mm 0 W/m2
02:32 0.3 °C -2.9 °C 1012.8 hPa WNW 14.5 km/h 22.5 km/h 79 % 0 mm 0 W/m2
02:42 0.3 °C -2.9 °C 1013.1 hPa WNW 12.9 km/h 20.9 km/h 79 % 0 mm 0 W/m2
02:52 0.4 °C -3 °C 1012.8 hPa NW 14.5 km/h 22.5 km/h 78 % 0 mm 0 W/m2
02:57 0.4 °C -3 °C 1012.8 hPa WNW 16.1 km/h 24.1 km/h 78 % 0 mm 0 W/m2
03:07 0.4 °C -3 °C 1012.8 hPa WNW 12.9 km/h 22.5 km/h 78 % 0 mm 0 W/m2
03:12 0.4 °C -3 °C 1012.8 hPa WNW 11.3 km/h 20.9 km/h 78 % 0 mm 0 W/m2
03:17 0.3 °C -3.1 °C 1012.8 hPa WNW 11.3 km/h 22.5 km/h 78 % 0 mm 0 W/m2
03:22 0.2 °C -3 °C 1012.4 hPa WNW 11.3 km/h 17.7 km/h 79 % 0 mm 0 W/m2
03:27 0.1 °C -3.1 °C 1012.4 hPa WNW 12.9 km/h 19.3 km/h 79 % 0 mm 0 W/m2
03:52 0.4 °C -3 °C 1012.4 hPa WNW 14.5 km/h 25.7 km/h 78 % 0 mm 0 W/m2
03:57 0.4 °C -3.2 °C 1012.4 hPa NW 12.9 km/h 25.7 km/h 77 % 0 mm 0 W/m2
04:02 0.5 °C -3.1 °C 1012.4 hPa WNW 16.1 km/h 24.1 km/h 77 % 0 mm 0 W/m2
04:07 0.5 °C -3.1 °C 1012.4 hPa WNW 12.9 km/h 22.5 km/h 77 % 0 mm 0 W/m2
04:12 0.4 °C -3.2 °C 1012.4 hPa WNW 14.5 km/h 22.5 km/h 77 % 0 mm 0 W/m2
04:17 0.3 °C -3.3 °C 1012.4 hPa WNW 12.9 km/h 20.9 km/h 77 % 0 mm 0 W/m2
04:22 0.3 °C -3.1 °C 1012.4 hPa NW 9.7 km/h 19.3 km/h 78 % 0 mm 0 W/m2
04:27 0.2 °C -3.2 °C 1012.4 hPa WNW 14.5 km/h 24.1 km/h 78 % 0 mm 0 W/m2
04:32 0.2 °C -3.2 °C 1012.4 hPa NW 11.3 km/h 19.3 km/h 78 % 0 mm 0 W/m2
04:42 0.1 °C -3.3 °C 1012.4 hPa WNW 12.9 km/h 20.9 km/h 78 % 0 mm 0 W/m2
04:44 0.1 °C -3.3 °C 1012.4 hPa WNW 14.5 km/h 20.9 km/h 78 % 0 mm 0 W/m2
04:54 0.1 °C -3.1 °C 1012.4 hPa WNW 12.9 km/h 22.5 km/h 79 % 0 mm 0 W/m2
05:09 0.1 °C -3.3 °C 1012.4 hPa NW 12.9 km/h 22.5 km/h 78 % 0 mm 0 W/m2
05:14 0.1 °C -3.3 °C 1012.4 hPa WNW 11.3 km/h 20.9 km/h 78 % 0 mm 0 W/m2
05:19 0.1 °C -3.3 °C 1012.4 hPa WNW 14.5 km/h 19.3 km/h 78 % 0 mm 0 W/m2
05:24 0.1 °C -3.3 °C 1012.4 hPa NW 11.3 km/h 16.1 km/h 78 % 0 mm 0 W/m2
05:34 -0.1 °C -3.5 °C 1012.1 hPa WNW 14.5 km/h 24.1 km/h 78 % 0 mm 0 W/m2
05:39 -0.1 °C -3.5 °C 1012.1 hPa WNW 14.5 km/h 29 km/h 78 % 0 mm 0 W/m2
05:44 -0.1 °C -3.5 °C 1012.1 hPa NW 12.9 km/h 20.9 km/h 78 % 0 mm 0 W/m2
05:49 -0.1 °C -3.5 °C 1012.1 hPa WNW 11.3 km/h 19.3 km/h 78 % 0 mm 0 W/m2
05:54 -0.1 °C -3.3 °C 1012.1 hPa WNW 14.5 km/h 22.5 km/h 79 % 0 mm 0 W/m2
05:59 -0.1 °C -3.3 °C 1012.1 hPa NW 14.5 km/h 22.5 km/h 79 % 0 mm 0 W/m2
06:09 -0.2 °C -3.4 °C 1012.1 hPa WNW 11.3 km/h 16.1 km/h 79 % 0 mm 0 W/m2
06:14 -0.2 °C -3.4 °C 1012.1 hPa WNW 12.9 km/h 17.7 km/h 79 % 0 mm 0 W/m2
06:19 -0.2 °C -3.4 °C 1012.1 hPa WNW 14.5 km/h 24.1 km/h 79 % 0 mm 0 W/m2
06:24 -0.2 °C -3.4 °C 1012.1 hPa WNW 12.9 km/h 24.1 km/h 79 % 0 mm 0 W/m2
06:29 -0.2 °C -3.4 °C 1011.7 hPa WNW 14.5 km/h 22.5 km/h 79 % 0 mm 0 W/m2
06:34 -0.2 °C -3.4 °C 1011.7 hPa WNW 12.9 km/h 22.5 km/h 79 % 0 mm 0 W/m2
06:39 -0.2 °C -3.4 °C 1011.7 hPa WNW 12.9 km/h 19.3 km/h 79 % 0 mm 0 W/m2
06:49 -0.1 °C -3.3 °C 1011.7 hPa WNW 14.5 km/h 25.7 km/h 79 % 0 mm 0 W/m2
06:54 -0.1 °C -3.3 °C 1011.7 hPa WNW 12.9 km/h 19.3 km/h 79 % 0 mm 0 W/m2
06:59 -0.1 °C -3.3 °C 1011.7 hPa NW 12.9 km/h 25.7 km/h 79 % 0 mm 0 W/m2
07:04 -0.1 °C -3.3 °C 1011.7 hPa NW 11.3 km/h 19.3 km/h 79 % 0 mm 0 W/m2
07:09 -0.1 °C -3.3 °C 1011.7 hPa NW 12.9 km/h 20.9 km/h 79 % 0 mm 0 W/m2
07:19 -0.1 °C -3.3 °C 1011.7 hPa WNW 11.3 km/h 19.3 km/h 79 % 0 mm 0 W/m2
07:29 -0.2 °C -3.4 °C 1011.7 hPa NW 14.5 km/h 24.1 km/h 79 % 0 mm 0 W/m2
07:34 -0.2 °C -3.4 °C 1011.7 hPa NW 11.3 km/h 20.9 km/h 79 % 0 mm 0 W/m2
07:39 -0.2 °C -3.4 °C 1011.7 hPa NW 12.9 km/h 22.5 km/h 79 % 0 mm 0 W/m2
07:44 -0.1 °C -3.3 °C 1011.7 hPa NW 12.9 km/h 24.1 km/h 79 % 0 mm 0 W/m2
07:49 -0.1 °C -3.3 °C 1011.7 hPa NW 16.1 km/h 32.2 km/h 79 % 0 mm 0 W/m2
07:59 0 °C -3.2 °C 1012.1 hPa NW 19.3 km/h 35.4 km/h 79 % 0 mm 5 W/m2
08:09 0.1 °C -3.1 °C 1012.1 hPa NW 16.1 km/h 30.6 km/h 79 % 0 mm 9 W/m2
08:14 0.2 °C -3 °C 1012.1 hPa WNW 14.5 km/h 24.1 km/h 79 % 0 mm 11 W/m2
08:19 0.2 °C -3.2 °C 1012.1 hPa WNW 16.1 km/h 29 km/h 78 % 0 mm 14 W/m2
08:24 0.3 °C -3.1 °C 1012.1 hPa WNW 12.9 km/h 24.1 km/h 78 % 0 mm 16 W/m2
08:29 0.3 °C -3.1 °C 1012.1 hPa NW 16.1 km/h 22.5 km/h 78 % 0 mm 18 W/m2
08:39 0.5 °C -2.9 °C 1012.1 hPa NW 19.3 km/h 30.6 km/h 78 % 0 mm 21 W/m2
08:44 0.6 °C -2.8 °C 1012.1 hPa NW 14.5 km/h 24.1 km/h 78 % 0 mm 23 W/m2
08:49 0.6 °C -2.9 °C 1012.1 hPa WNW 14.5 km/h 24.1 km/h 77 % 0 mm 25 W/m2
08:54 0.6 °C -2.9 °C 1012.1 hPa NW 14.5 km/h 25.7 km/h 77 % 0 mm 25 W/m2
08:59 0.7 °C -2.7 °C 1012.1 hPa WNW 11.3 km/h 20.9 km/h 78 % 0 mm 26 W/m2
09:04 0.7 °C -2.9 °C 1012.1 hPa WNW 14.5 km/h 24.1 km/h 77 % 0 mm 30 W/m2
09:09 0.8 °C -2.8 °C 1012.1 hPa WNW 16.1 km/h 29 km/h 77 % 0 mm 95 W/m2
09:14 0.9 °C -2.7 °C 1011.7 hPa NW 12.9 km/h 25.7 km/h 77 % 0 mm 135 W/m2
09:19 1 °C -2.6 °C 1011.7 hPa NW 16.1 km/h 24.1 km/h 77 % 0 mm 142 W/m2
09:24 1.2 °C -2.6 °C 1012.1 hPa WNW 14.5 km/h 30.6 km/h 76 % 0 mm 162 W/m2
09:29 1.3 °C -2.4 °C 1012.1 hPa NW 11.3 km/h 19.3 km/h 76 % 0 mm 153 W/m2
09:39 1.8 °C -2.3 °C 1012.1 hPa WNW 16.1 km/h 29 km/h 74 % 0 mm 169 W/m2
09:44 1.9 °C -2.4 °C 1012.1 hPa NW 19.3 km/h 33.8 km/h 73 % 0 mm 176 W/m2
09:50 1.9 °C -2.4 °C 1012.1 hPa NW 14.5 km/h 30.6 km/h 73 % 0 mm 183 W/m2
09:55 2.1 °C -2.4 °C 1012.1 hPa NW 14.5 km/h 24.1 km/h 72 % 0 mm 190 W/m2
10:00 2.1 °C -2.4 °C 1012.1 hPa NW 20.9 km/h 38.6 km/h 72 % 0 mm 197 W/m2
10:10 2.2 °C -2.5 °C 1011.7 hPa NW 20.9 km/h 35.4 km/h 71 % 0 mm 209 W/m2
10:20 2.3 °C -2.4 °C 1012.1 hPa NW 19.3 km/h 33.8 km/h 71 % 0 mm 220 W/m2
10:25 2.3 °C -2.4 °C 1012.1 hPa NW 19.3 km/h 33.8 km/h 71 % 0 mm 225 W/m2
10:35 2.6 °C -2.1 °C 1012.1 hPa NW 20.9 km/h 40.2 km/h 71 % 0 mm 237 W/m2
10:40 2.7 °C -2.1 °C 1012.1 hPa NW 12.9 km/h 22.5 km/h 71 % 0 mm 241 W/m2
10:45 2.8 °C -1.9 °C 1012.1 hPa NW 14.5 km/h 29 km/h 71 % 0 mm 246 W/m2
10:50 2.8 °C -2.1 °C 1012.1 hPa NW 17.7 km/h 30.6 km/h 70 % 0 mm 251 W/m2
10:55 2.9 °C -2.2 °C 1012.1 hPa NW 19.3 km/h 33.8 km/h 69 % 0 mm 265 W/m2
11:05 3 °C -2.1 °C 1012.1 hPa NW 12.9 km/h 24.1 km/h 69 % 0 mm 272 W/m2
11:10 3.2 °C -1.9 °C 1011.7 hPa NW 14.5 km/h 29 km/h 69 % 0 mm 292 W/m2
11:15 3.2 °C -2.2 °C 1012.1 hPa NW 16.1 km/h 30.6 km/h 68 % 0 mm 81 W/m2
11:20 3 °C -2.6 °C 1011.7 hPa NW 19.3 km/h 37 km/h 67 % 0 mm 155 W/m2
11:30 2.6 °C -2.5 °C 1012.1 hPa NW 16.1 km/h 24.1 km/h 69 % 0 mm 76 W/m2
11:35 2.6 °C -2.5 °C 1012.1 hPa NW 22.5 km/h 32.2 km/h 69 % 0 mm 114 W/m2
11:45 3 °C -2.1 °C 1012.1 hPa NW 14.5 km/h 24.1 km/h 69 % 0 mm 290 W/m2
11:50 3.2 °C -2.2 °C 1012.1 hPa NW 16.1 km/h 32.2 km/h 68 % 0 mm 195 W/m2
11:55 3.3 °C -2.1 °C 1012.1 hPa NW 19.3 km/h 32.2 km/h 68 % 0 mm 281 W/m2
12:05 3.6 °C -1.9 °C 1012.1 hPa NW 17.7 km/h 30.6 km/h 67 % 0 mm 353 W/m2
12:10 3.7 °C -1.9 °C 1012.1 hPa NW 19.3 km/h 32.2 km/h 67 % 0 mm 251 W/m2
12:15 3.8 °C -2 °C 1012.1 hPa NW 19.3 km/h 32.2 km/h 66 % 0 mm 163 W/m2
12:20 3.8 °C -1.8 °C 1011.7 hPa NW 12.9 km/h 22.5 km/h 67 % 0 mm 139 W/m2
12:25 3.7 °C -2.1 °C 1012.1 hPa NW 16.1 km/h 24.1 km/h 66 % 0 mm 139 W/m2
12:30 3.6 °C -1.9 °C 1012.1 hPa NW 14.5 km/h 24.1 km/h 67 % 0 mm 132 W/m2
12:35 3.5 °C -2.1 °C 1011.7 hPa NW 12.9 km/h 24.1 km/h 67 % 0 mm 114 W/m2
12:40 3.5 °C -1.8 °C 1012.1 hPa NNW 12.9 km/h 20.9 km/h 68 % 0 mm 95 W/m2
12:45 3.4 °C -1.9 °C 1012.1 hPa NNW 12.9 km/h 25.7 km/h 68 % 0 mm 167 W/m2
12:50 3.5 °C -1.8 °C 1012.1 hPa NW 12.9 km/h 32.2 km/h 68 % 0 mm 200 W/m2
12:55 3.6 °C -1.8 °C 1011.7 hPa NW 17.7 km/h 37 km/h 68 % 0 mm 158 W/m2
13:00 3.6 °C -1.8 °C 1011.7 hPa NW 17.7 km/h 33.8 km/h 68 % 0 mm 79 W/m2
13:20 3.6 °C -1.8 °C 1011.7 hPa NNW 17.7 km/h 30.6 km/h 68 % 0 mm 47 W/m2
13:25 3.6 °C -1.8 °C 1012.1 hPa NW 16.1 km/h 24.1 km/h 68 % 0 mm 220 W/m2
13:35 3.7 °C -1.7 °C 1012.1 hPa NW 17.7 km/h 25.7 km/h 68 % 0 mm 70 W/m2
13:45 3.6 °C -1.8 °C 1012.1 hPa NW 17.7 km/h 25.7 km/h 68 % 0 mm 67 W/m2
13:50 3.6 °C -1.8 °C 1012.1 hPa NNW 16.1 km/h 30.6 km/h 68 % 0 mm 69 W/m2
13:55 3.6 °C -1.6 °C 1011.7 hPa NW 14.5 km/h 29 km/h 69 % 0 mm 86 W/m2
14:00 3.6 °C -1.6 °C 1011.7 hPa NW 16.1 km/h 25.7 km/h 69 % 0 mm 163 W/m2
14:05 3.6 °C -1.6 °C 1012.1 hPa NW 12.9 km/h 22.5 km/h 69 % 0 mm 69 W/m2
14:11 3.6 °C -1.6 °C 1012.1 hPa NW 19.3 km/h 29 km/h 69 % 0 mm 37 W/m2
14:16 3.5 °C -1.7 °C 1012.1 hPa NW 14.5 km/h 24.1 km/h 69 % 0 mm 39 W/m2
14:20 3.5 °C -1.4 °C 1012.4 hPa NW 9.7 km/h 20.9 km/h 70 % 0 mm 51 W/m2
14:25 3.4 °C -1.6 °C 1012.4 hPa NW 16.1 km/h 25.7 km/h 70 % 0 mm 102 W/m2
14:36 3.5 °C -1.4 °C 1012.4 hPa NW 12.9 km/h 20.9 km/h 70 % 0 mm 54 W/m2
14:41 3.5 °C -1.4 °C 1012.1 hPa NW 17.7 km/h 29 km/h 70 % 0 mm 58 W/m2
14:51 3.6 °C -1.4 °C 1012.1 hPa NW 14.5 km/h 30.6 km/h 70 % 0 mm 51 W/m2
14:53 3.6 °C -1.4 °C 1012.4 hPa NW 14.5 km/h 30.6 km/h 70 % 0 mm 47 W/m2
14:58 3.6 °C -1.2 °C 1012.4 hPa NW 11.3 km/h 20.9 km/h 71 % 0 mm 37 W/m2
15:08 3.6 °C -1.2 °C 1012.4 hPa NW 8 km/h 14.5 km/h 71 % 0 mm 39 W/m2
15:18 3.6 °C -1.2 °C 1012.4 hPa NW 19.3 km/h 32.2 km/h 71 % 0 mm 18 W/m2
15:23 3.6 °C -1 °C 1012.8 hPa NNW 17.7 km/h 30.6 km/h 72 % 0 mm 14 W/m2
15:28 3.5 °C -1.1 °C 1012.8 hPa NNW 16.1 km/h 29 km/h 72 % 0 mm 11 W/m2
15:33 3.4 °C -1 °C 1012.8 hPa NNW 12.9 km/h 24.1 km/h 73 % 0 mm 7 W/m2
15:38 3.4 °C -1 °C 1012.8 hPa NNW 16.1 km/h 29 km/h 73 % 0 mm 9 W/m2
15:59 2.9 °C -0.4 °C 1013.1 hPa NNW 16.1 km/h 24.1 km/h 79 % 0 mm 0 W/m2
16:04 2.8 °C -0.5 °C 1013.1 hPa NNW 12.9 km/h 20.9 km/h 79 % 0 mm 0 W/m2
16:09 2.8 °C -0.3 °C 1013.1 hPa NNW 17.7 km/h 33.8 km/h 80 % 0 mm 0 W/m2
16:21 2.7 °C -0.2 °C 1013.1 hPa NW 12.9 km/h 24.1 km/h 81 % 0 mm 0 W/m2
16:26 2.6 °C -0.3 °C 1013.1 hPa NW 9.7 km/h 20.9 km/h 81 % 0 mm 0 W/m2
16:36 2.6 °C -0.3 °C 1013.4 hPa NW 11.3 km/h 20.9 km/h 81 % 0 mm 0 W/m2
16:41 2.6 °C -0.3 °C 1013.4 hPa NNW 11.3 km/h 20.9 km/h 81 % 0 mm 0 W/m2
16:46 2.7 °C -0.2 °C 1013.4 hPa NW 11.3 km/h 20.9 km/h 81 % 0 mm 0 W/m2
17:06 2.6 °C -0.3 °C 1013.8 hPa NW 14.5 km/h 22.5 km/h 81 % 0 mm 0 W/m2
17:11 2.6 °C -0.3 °C 1013.8 hPa NW 9.7 km/h 19.3 km/h 81 % 0 mm 0 W/m2
17:16 2.6 °C -0.3 °C 1013.8 hPa NW 11.3 km/h 19.3 km/h 81 % 0 mm 0 W/m2
17:21 2.6 °C -0.5 °C 1013.8 hPa NW 12.9 km/h 20.9 km/h 80 % 0 mm 0 W/m2
17:26 2.5 °C -0.6 °C 1013.8 hPa NW 14.5 km/h 24.1 km/h 80 % 0 mm 0 W/m2
17:31 2.6 °C -0.7 °C 1013.8 hPa NW 9.7 km/h 17.7 km/h 79 % 0 mm 0 W/m2
17:36 2.6 °C -0.7 °C 1013.8 hPa NW 14.5 km/h 22.5 km/h 79 % 0 mm 0 W/m2
17:51 2.6 °C -1.1 °C 1013.8 hPa NW 16.1 km/h 25.7 km/h 77 % 0 mm 0 W/m2
17:56 2.6 °C -1.1 °C 1014.1 hPa NNW 14.5 km/h 30.6 km/h 77 % 0 mm 0 W/m2
18:01 2.6 °C -1.1 °C 1014.1 hPa NW 17.7 km/h 30.6 km/h 77 % 0 mm 0 W/m2
18:07 2.7 °C -1.1 °C 1014.1 hPa NNW 11.3 km/h 19.3 km/h 76 % 0 mm 0 W/m2
18:12 2.6 °C -1.1 °C 1014.1 hPa NW 12.9 km/h 22.5 km/h 77 % 0 mm 0 W/m2
18:17 2.6 °C -1.1 °C 1014.1 hPa NW 14.5 km/h 29 km/h 77 % 0 mm 0 W/m2
18:22 2.5 °C -1.1 °C 1014.4 hPa NW 12.9 km/h 22.5 km/h 77 % 0 mm 0 W/m2
18:32 2.5 °C -1.1 °C 1014.1 hPa NW 14.5 km/h 22.5 km/h 77 % 0 mm 0 W/m2
18:37 2.6 °C -0.8 °C 1014.1 hPa NW 11.3 km/h 16.1 km/h 78 % 0 mm 0 W/m2
18:47 2.6 °C -0.5 °C 1014.4 hPa NW 12.9 km/h 22.5 km/h 80 % 0 mm 0 W/m2
18:52 2.4 °C -0.3 °C 1014.4 hPa NW 12.9 km/h 24.1 km/h 82 % 0 mm 0 W/m2
19:02 2.2 °C -0.4 °C 1014.4 hPa NW 12.9 km/h 25.7 km/h 83 % 0 mm 0 W/m2
19:07 2.1 °C -0.5 °C 1014.4 hPa NW 12.9 km/h 20.9 km/h 83 % 0 mm 0 W/m2
19:17 2 °C -0.8 °C 1014.4 hPa NW 14.5 km/h 24.1 km/h 82 % 0 mm 0 W/m2
19:22 2.1 °C -0.7 °C 1014.8 hPa NW 16.1 km/h 30.6 km/h 82 % 0 mm 0 W/m2
19:27 2.2 °C -0.6 °C 1014.8 hPa NW 14.5 km/h 24.1 km/h 82 % 0 mm 0 W/m2
19:32 2.3 °C -0.4 °C 1014.8 hPa NW 11.3 km/h 19.3 km/h 82 % 0 mm 0 W/m2
19:37 2.4 °C -0.6 °C 1015.1 hPa NW 12.9 km/h 20.9 km/h 81 % 0 mm 0 W/m2
19:44 2.4 °C -0.3 °C 1015.1 hPa NNW 16.1 km/h 30.6 km/h 82 % 0 mm 0 W/m2
19:49 2.5 °C -0.3 °C 1015.1 hPa NNW 17.7 km/h 29 km/h 82 % 0 mm 0 W/m2
19:59 2.5 °C 0.1 °C 1015.1 hPa NNW 11.3 km/h 22.5 km/h 84 % 0 mm 0 W/m2
20:04 2.4 °C -0.1 °C 1015.5 hPa NNW 12.9 km/h 25.7 km/h 84 % 0 mm 0 W/m2
20:09 2.4 °C 0.1 °C 1015.5 hPa NNW 12.9 km/h 25.7 km/h 85 % 0 mm 0 W/m2
20:19 2.3 °C 0.2 °C 1015.5 hPa NNW 14.5 km/h 25.7 km/h 86 % 0 mm 0 W/m2
20:24 2.2 °C 0.1 °C 1015.5 hPa NNW 12.9 km/h 25.7 km/h 86 % 0 mm 0 W/m2
20:29 2.1 °C 0 °C 1015.5 hPa NW 12.9 km/h 24.1 km/h 86 % 0 mm 0 W/m2
20:34 2.1 °C 0.2 °C 1015.5 hPa NW 8 km/h 16.1 km/h 87 % 0 mm 0 W/m2
20:39 2.1 °C 0.2 °C 1015.5 hPa NW 11.3 km/h 22.5 km/h 87 % 0 mm 0 W/m2
20:44 2 °C 0.1 °C 1015.5 hPa NW 12.9 km/h 22.5 km/h 87 % 0 mm 0 W/m2
20:49 1.9 °C 0.1 °C 1015.8 hPa NW 8 km/h 14.5 km/h 88 % 0 mm 0 W/m2
20:54 1.7 °C -0.1 °C 1015.8 hPa NW 11.3 km/h 20.9 km/h 88 % 0 mm 0 W/m2
20:59 1.6 °C 0 °C 1015.8 hPa NW 11.3 km/h 20.9 km/h 89 % 0 mm 0 W/m2
21:04 1.5 °C 0.1 °C 1015.8 hPa NW 12.9 km/h 25.7 km/h 90 % 0 mm 0 W/m2
21:09 1.5 °C 0.1 °C 1015.8 hPa NW 8 km/h 17.7 km/h 90 % 0 mm 0 W/m2
21:14 1.5 °C 0.2 °C 1015.8 hPa NW 14.5 km/h 25.7 km/h 91 % 0 mm 0 W/m2
21:20 1.6 °C 0.3 °C 1015.8 hPa NW 11.3 km/h 22.5 km/h 91 % 0 mm 0 W/m2
21:30 1.7 °C 0.4 °C 1016.1 hPa NW 14.5 km/h 22.5 km/h 91 % 0 mm 0 W/m2
21:35 1.7 °C 0.4 °C 1016.1 hPa NW 12.9 km/h 20.9 km/h 91 % 0.25 mm 0 W/m2
21:45 1.7 °C 0.2 °C 1016.1 hPa NW 9.7 km/h 14.5 km/h 90 % 0.25 mm 0 W/m2
21:50 1.6 °C 0.3 °C 1016.1 hPa NW 12.9 km/h 22.5 km/h 91 % 0.25 mm 0 W/m2
21:55 1.5 °C 0.2 °C 1016.1 hPa NW 12.9 km/h 22.5 km/h 91 % 0.51 mm 0 W/m2
22:00 1.5 °C 0.2 °C 1016.1 hPa NW 11.3 km/h 20.9 km/h 91 % 0.51 mm 0 W/m2
22:05 1.5 °C 0.2 °C 1016.1 hPa NW 6.4 km/h 16.1 km/h 91 % 0.51 mm 0 W/m2
22:10 1.5 °C 0.3 °C 1016.1 hPa NW 9.7 km/h 19.3 km/h 92 % 0.51 mm 0 W/m2
22:15 1.6 °C 0.4 °C 1016.1 hPa NW 11.3 km/h 17.7 km/h 92 % 0.51 mm 0 W/m2
22:20 1.6 °C 0.4 °C 1016.1 hPa NW 11.3 km/h 20.9 km/h 92 % 0.51 mm 0 W/m2
22:25 1.6 °C 0.4 °C 1016.1 hPa NW 16.1 km/h 25.7 km/h 92 % 0.51 mm 0 W/m2
22:35 1.4 °C 0.2 °C 1016.1 hPa NW 8 km/h 16.1 km/h 92 % 0.51 mm 0 W/m2
22:40 1.3 °C 0.2 °C 1016.1 hPa NW 9.7 km/h 17.7 km/h 92 % 0.51 mm 0 W/m2
22:50 1.3 °C 0.3 °C 1016.1 hPa NW 12.9 km/h 22.5 km/h 93 % 0.51 mm 0 W/m2
22:55 1.4 °C 0.4 °C 1016.1 hPa NW 14.5 km/h 25.7 km/h 93 % 0.51 mm 0 W/m2
23:00 1.5 °C 0.5 °C 1016.1 hPa NW 14.5 km/h 32.2 km/h 93 % 0.51 mm 0 W/m2
23:05 1.6 °C 0.6 °C 1016.1 hPa NW 16.1 km/h 32.2 km/h 93 % 0.51 mm 0 W/m2
23:10 1.7 °C 0.7 °C 1016.1 hPa NW 12.9 km/h 20.9 km/h 93 % 0.51 mm 0 W/m2
23:15 1.7 °C 0.7 °C 1016.5 hPa NW 14.5 km/h 24.1 km/h 93 % 0.51 mm 0 W/m2
23:20 1.7 °C 0.7 °C 1016.5 hPa NW 12.9 km/h 20.9 km/h 93 % 0.51 mm 0 W/m2
23:25 1.7 °C 0.7 °C 1016.5 hPa NW 12.9 km/h 22.5 km/h 93 % 0.51 mm 0 W/m2
23:30 1.7 °C 0.7 °C 1016.5 hPa NW 12.9 km/h 22.5 km/h 93 % 0.51 mm 0 W/m2
23:35 1.8 °C 0.6 °C 1016.5 hPa NW 16.1 km/h 33.8 km/h 92 % 0.51 mm 0 W/m2
23:40 1.8 °C 0.6 °C 1016.5 hPa NW 11.3 km/h 20.9 km/h 92 % 0.51 mm 0 W/m2
23:45 1.9 °C 0.7 °C 1016.8 hPa NNW 16.1 km/h 35.4 km/h 92 % 0.51 mm 0 W/m2
23:55 1.9 °C 0.7 °C 1016.5 hPa NNW 16.1 km/h 25.7 km/h 92 % 0.51 mm 0 W/m2
Delerius-Weather
Compliments of Weather Underground - 2 mb

Data updates at regular intervals.